IBZ weather

Ibiza Airport
Ibiza, Baleares, Spain

Public forecast

Using degrees Celsius for public forecast. Weather courtesy of forecast.io.

Current aviation weather report (METAR) for Ibiza Airport

Retrieved 2019/10/21 02:30 UTC (0 seconds ago):

LEIB 210230Z 31008KT CAVOK 18/09 Q1015 NOSIG

Aviation forecast (TAF) for Ibiza Airport

Retrieved 2019-10-21 03:27 UTC (0 seconds ago):

TAF LEIB 210200Z 2103/2203 32007KT 9999 FEW030 TX20/2112Z TN14/2106Z PROB30 TEMPO 2104/2120 4000 SHRA SCT030 FEW050TCU PROB30 TEMPO 2104/2110 4000 TSRA BKN030 SCT050CB